createdAt,value
2018-11-04T00:00:54.933Z,30.88
2018-11-04T00:03:23.479Z,30.65
2018-11-04T00:05:52.836Z,30.55
2018-11-04T00:08:21.344Z,29.37
2018-11-04T00:10:49.853Z,38.70
2018-11-04T00:13:18.479Z,25.32
2018-11-04T00:15:46.861Z,35.75
2018-11-04T00:18:15.880Z,30.10
2018-11-04T00:20:44.682Z,25.30
2018-11-04T00:23:13.224Z,33.50
2018-11-04T00:25:41.741Z,28.55
2018-11-04T00:28:10.283Z,29.32
2018-11-04T00:30:38.778Z,30.27
2018-11-04T00:33:07.260Z,30.40
2018-11-04T00:35:35.737Z,35.08
2018-11-04T00:38:04.223Z,37.60
2018-11-04T00:40:32.717Z,38.17
2018-11-04T00:43:01.180Z,35.03
2018-11-04T00:45:29.730Z,32.17
2018-11-04T00:47:58.129Z,38.48
2018-11-04T00:50:26.646Z,30.77
2018-11-04T00:52:55.142Z,30.35
2018-11-04T00:55:23.654Z,36.73
2018-11-04T00:57:52.207Z,36.85
2018-11-04T01:00:20.869Z,35.23
2018-11-04T01:02:50.555Z,36.05
2018-11-04T01:05:19.335Z,36.28
2018-11-04T01:07:47.863Z,36.42
2018-11-04T01:10:16.370Z,34.78
2018-11-04T01:12:45.402Z,35.40
2018-11-04T01:15:14.775Z,46.25
2018-11-04T01:17:43.761Z,35.83
2018-11-04T01:20:14.707Z,37.67
2018-11-04T01:22:43.571Z,39.48
2018-11-04T01:25:12.045Z,36.65
2018-11-04T01:27:40.759Z,39.98
2018-11-04T01:30:12.302Z,36.35
2018-11-04T01:32:40.760Z,41.65
2018-11-04T01:35:09.265Z,36.65
2018-11-04T01:37:37.813Z,34.70
2018-11-04T01:40:07.172Z,38.42
2018-11-04T01:42:35.685Z,32.48
2018-11-04T01:45:04.621Z,36.03
2018-11-04T01:47:33.122Z,39.15
2018-11-04T01:50:01.637Z,46.80
2018-11-04T01:52:30.114Z,45.52
2018-11-04T01:54:58.678Z,55.40
2018-11-04T01:57:27.160Z,34.38
2018-11-04T01:59:55.667Z,34.03
2018-11-04T02:02:24.164Z,39.48
2018-11-04T02:04:52.678Z,39.20
2018-11-04T02:07:21.203Z,36.30
2018-11-04T02:09:49.693Z,48.33
2018-11-04T02:12:18.211Z,43.58
2018-11-04T02:14:46.703Z,40.08
2018-11-04T02:17:15.190Z,36.25
2018-11-04T02:19:43.698Z,41.83
2018-11-04T02:22:12.223Z,43.23
2018-11-04T02:24:40.698Z,38.33
2018-11-04T02:27:09.219Z,44.18
2018-11-04T02:29:37.695Z,41.13
2018-11-04T02:32:06.840Z,39.70
2018-11-04T02:34:35.349Z,41.95
2018-11-04T02:37:03.862Z,36.23
2018-11-04T02:39:32.363Z,28.57
2018-11-04T02:42:00.848Z,31.02
2018-11-04T02:44:29.341Z,27.98
2018-11-04T02:46:57.923Z,31.40
2018-11-04T02:49:26.321Z,35.15
2018-11-04T02:51:54.844Z,36.05
2018-11-04T02:54:23.357Z,33.40
2018-11-04T02:56:51.811Z,35.40
2018-11-04T02:59:20.293Z,31.70
2018-11-04T03:01:48.823Z,37.58
2018-11-04T03:04:17.368Z,25.32
2018-11-04T03:06:45.826Z,27.77
2018-11-04T03:09:14.296Z,43.40
2018-11-04T03:11:42.761Z,32.35
2018-11-04T03:14:11.320Z,26.30
2018-11-04T03:16:39.842Z,32.63
2018-11-04T03:19:08.392Z,29.27
2018-11-04T03:21:36.878Z,35.33
2018-11-04T03:24:05.411Z,28.67
2018-11-04T03:26:33.945Z,29.23
2018-11-04T03:29:02.406Z,33.13
2018-11-04T03:31:30.881Z,31.27
2018-11-04T03:33:59.352Z,31.27
2018-11-04T03:36:27.811Z,29.30
2018-11-04T03:38:56.329Z,29.35
2018-11-04T03:41:24.830Z,34.50
2018-11-04T03:43:53.298Z,31.23
2018-11-04T03:46:21.875Z,36.30
2018-11-04T03:48:50.353Z,35.40
2018-11-04T03:51:18.866Z,29.55
2018-11-04T03:53:47.343Z,34.50
2018-11-04T03:56:15.847Z,33.37
2018-11-04T03:58:44.373Z,31.83
2018-11-04T04:01:12.854Z,38.33
2018-11-04T04:03:41.333Z,34.97
2018-11-04T04:06:09.875Z,31.27
2018-11-04T04:08:38.398Z,32.00
2018-11-04T04:11:06.878Z,30.17
2018-11-04T04:13:35.338Z,30.93
2018-11-04T04:16:03.897Z,33.57
2018-11-04T04:18:32.371Z,29.97
2018-11-04T04:21:06.017Z,36.30
2018-11-04T04:23:34.477Z,29.73
2018-11-04T04:26:03.129Z,28.50
2018-11-04T04:28:31.714Z,26.13
2018-11-04T04:31:00.264Z,34.80
2018-11-04T04:33:28.849Z,31.47
2018-11-04T04:35:57.364Z,27.40
2018-11-04T04:38:26.155Z,32.50
2018-11-04T04:40:54.653Z,32.77
2018-11-04T04:43:23.330Z,31.10
2018-11-04T04:45:52.875Z,25.23
2018-11-04T04:48:21.618Z,37.00
2018-11-04T04:50:50.111Z,33.60
2018-11-04T04:53:25.709Z,30.60
2018-11-04T04:55:56.130Z,29.50
2018-11-04T04:58:24.604Z,38.13
2018-11-04T05:00:53.842Z,31.67
2018-11-04T05:03:22.635Z,29.17
2018-11-04T05:05:51.113Z,33.40
2018-11-04T05:08:19.621Z,28.03
2018-11-04T05:10:48.339Z,30.50
2018-11-04T05:13:16.814Z,27.30
2018-11-04T05:15:45.271Z,28.60
2018-11-04T05:18:13.746Z,30.40
2018-11-04T05:20:42.387Z,28.37
2018-11-04T05:23:10.862Z,30.23
2018-11-04T05:25:39.370Z,30.87
2018-11-04T05:28:08.442Z,34.03
2018-11-04T05:30:37.058Z,36.23
2018-11-04T05:33:05.793Z,33.13
2018-11-04T05:35:34.275Z,36.03
2018-11-04T05:38:02.747Z,33.53
2018-11-04T05:40:31.218Z,31.37
2018-11-04T05:42:59.710Z,34.07
2018-11-04T05:45:28.202Z,26.20
2018-11-04T05:47:56.687Z,26.47
2018-11-04T05:50:25.123Z,36.43
2018-11-04T05:52:53.609Z,28.70
2018-11-04T05:55:22.113Z,26.73
2018-11-04T05:57:50.718Z,27.83
2018-11-04T06:00:19.214Z,35.93
2018-11-04T06:02:47.718Z,28.20
2018-11-04T06:05:16.165Z,32.30
2018-11-04T06:07:44.666Z,28.80
2018-11-04T06:10:19.741Z,35.83
2018-11-04T06:12:48.243Z,31.70
2018-11-04T06:15:16.714Z,34.63
2018-11-04T06:17:45.237Z,28.10
2018-11-04T06:20:13.754Z,29.87
2018-11-04T06:22:43.474Z,30.57
2018-11-04T06:25:11.971Z,26.50
2018-11-04T06:27:40.434Z,26.97
2018-11-04T06:30:10.783Z,33.50
2018-11-04T06:32:39.318Z,29.30
2018-11-04T06:35:08.376Z,29.33
2018-11-04T06:37:37.050Z,36.27
2018-11-04T06:40:06.534Z,29.10
2018-11-04T06:42:35.009Z,34.83
2018-11-04T06:45:03.549Z,27.67
2018-11-04T06:47:32.085Z,40.40
2018-11-04T06:50:00.515Z,32.03
2018-11-04T06:52:29.391Z,29.20
2018-11-04T06:54:57.938Z,32.70
2018-11-04T06:57:27.818Z,32.30
2018-11-04T06:59:56.326Z,33.80
2018-11-04T07:02:24.826Z,37.20
2018-11-04T07:04:53.357Z,33.93
2018-11-04T07:07:21.846Z,26.73
2018-11-04T07:09:50.327Z,33.17
2018-11-04T07:12:18.844Z,36.63
2018-11-04T07:14:47.337Z,32.43
2018-11-04T07:17:15.804Z,32.73
2018-11-04T07:19:44.332Z,31.00
2018-11-04T07:22:12.818Z,34.70
2018-11-04T07:24:41.342Z,34.90
2018-11-04T07:27:09.819Z,33.33
2018-11-04T07:29:38.310Z,31.07
2018-11-04T07:32:06.847Z,37.80
2018-11-04T07:34:35.337Z,28.93
2018-11-04T07:37:03.814Z,31.20
2018-11-04T07:39:32.295Z,29.97
2018-11-04T07:42:00.791Z,34.67
2018-11-04T07:44:29.372Z,34.47
2018-11-04T07:46:57.795Z,35.93
2018-11-04T07:49:26.297Z,36.37
2018-11-04T07:51:55.737Z,31.67
2018-11-04T07:54:24.206Z,33.40
2018-11-04T07:56:52.706Z,31.17
2018-11-04T07:59:21.221Z,37.63
2018-11-04T08:01:49.758Z,34.10
2018-11-04T08:04:18.359Z,38.80
2018-11-04T08:06:46.758Z,31.43
2018-11-04T08:09:15.314Z,44.23
2018-11-04T08:11:43.830Z,36.77
2018-11-04T08:14:12.299Z,38.53
2018-11-04T08:16:40.803Z,34.57
2018-11-04T08:19:09.280Z,37.77
2018-11-04T08:21:37.812Z,48.57
2018-11-04T08:24:06.287Z,38.80
2018-11-04T08:26:37.674Z,33.40
2018-11-04T08:29:06.513Z,39.03
2018-11-04T08:31:35.027Z,44.53
2018-11-04T08:34:03.477Z,42.90
2018-11-04T08:36:31.975Z,37.97
2018-11-04T08:39:00.458Z,40.80
2018-11-04T08:41:28.959Z,43.00
2018-11-04T08:43:57.445Z,46.00
2018-11-04T08:46:25.918Z,43.10
2018-11-04T08:48:54.385Z,40.93
2018-11-04T08:51:22.871Z,40.07
2018-11-04T08:53:51.319Z,33.13
2018-11-04T08:56:19.811Z,37.83
2018-11-04T08:58:48.289Z,37.90
2018-11-04T09:01:16.798Z,38.97
2018-11-04T09:03:45.248Z,37.93
2018-11-04T09:06:13.720Z,40.37
2018-11-04T09:08:42.204Z,40.40
2018-11-04T09:11:10.658Z,37.90
2018-11-04T09:13:39.141Z,38.57
2018-11-04T09:16:07.588Z,38.27
2018-11-04T09:18:36.046Z,39.50
2018-11-04T09:21:04.818Z,37.17
2018-11-04T09:23:33.314Z,39.90
2018-11-04T09:26:01.801Z,41.80
2018-11-04T09:28:30.249Z,42.80
2018-11-04T09:30:58.723Z,41.33
2018-11-04T09:33:27.204Z,46.40
2018-11-04T09:35:55.880Z,39.10
2018-11-04T09:38:24.543Z,40.30
2018-11-04T09:40:53.048Z,38.13
2018-11-04T09:43:21.511Z,40.03
2018-11-04T09:45:50.053Z,40.30
2018-11-04T09:48:18.555Z,39.13
2018-11-04T09:50:47.280Z,38.97
2018-11-04T09:53:15.831Z,41.70
2018-11-04T09:55:44.322Z,37.87
2018-11-04T09:58:12.799Z,37.50
2018-11-04T10:00:41.256Z,43.73
2018-11-04T10:03:09.743Z,42.70
2018-11-04T10:05:38.187Z,38.13
2018-11-04T10:08:06.859Z,42.37
2018-11-04T10:10:35.435Z,35.93
2018-11-04T10:13:03.992Z,41.60
2018-11-04T10:15:32.415Z,45.53
2018-11-04T10:18:00.915Z,44.17
2018-11-04T10:20:29.686Z,41.90
2018-11-04T10:22:57.903Z,39.10
2018-11-04T10:25:26.376Z,45.33
2018-11-04T10:27:54.875Z,45.60
2018-11-04T10:30:23.393Z,46.67
2018-11-04T10:32:51.810Z,35.30
2018-11-04T10:35:20.244Z,41.93
2018-11-04T10:37:48.733Z,41.67
2018-11-04T10:40:17.179Z,38.10
2018-11-04T10:42:45.645Z,38.70
2018-11-04T10:45:14.106Z,39.60
2018-11-04T10:47:42.583Z,42.60
2018-11-04T10:50:12.244Z,39.87
2018-11-04T10:52:40.749Z,41.60
2018-11-04T10:55:10.457Z,42.17
2018-11-04T10:57:39.348Z,42.27
2018-11-04T11:00:14.731Z,40.47
2018-11-04T11:02:43.762Z,38.00
2018-11-04T11:05:12.278Z,39.70
2018-11-04T11:07:40.728Z,42.17
2018-11-04T11:10:10.124Z,39.53
2018-11-04T11:12:38.609Z,39.77
2018-11-04T11:15:07.892Z,47.17
2018-11-04T11:17:36.350Z,45.70
2018-11-04T11:21:27.958Z,64.13
2018-11-04T11:23:56.853Z,47.17
2018-11-04T11:26:25.340Z,40.03
2018-11-04T11:28:53.888Z,44.20
2018-11-04T11:31:22.430Z,43.60
2018-11-04T11:33:51.544Z,44.40
2018-11-04T11:36:22.255Z,52.73
2018-11-04T11:38:50.757Z,44.00
2018-11-04T11:41:19.242Z,43.73
2018-11-04T11:43:47.754Z,45.90
2018-11-04T11:46:16.561Z,41.30
2018-11-04T11:48:46.523Z,42.97
2018-11-04T11:51:20.613Z,42.80
2018-11-04T11:53:50.022Z,41.10
2018-11-04T11:56:19.119Z,43.37
2018-11-04T11:58:50.639Z,39.80
2018-11-04T12:01:23.663Z,46.27
2018-11-04T12:03:52.843Z,49.03
2018-11-04T12:06:27.791Z,39.67
2018-11-04T12:08:56.593Z,58.37
2018-11-04T12:11:25.087Z,45.77
2018-11-04T12:13:54.491Z,54.07
2018-11-04T12:16:24.095Z,47.83
2018-11-04T12:18:52.862Z,47.77
2018-11-04T12:21:22.497Z,40.47
2018-11-04T12:23:51.955Z,49.20
2018-11-04T12:26:20.440Z,42.87
2018-11-04T12:28:48.895Z,44.50
2018-11-04T12:31:17.364Z,48.30
2018-11-04T12:33:45.833Z,38.70
2018-11-04T12:36:14.304Z,50.00
2018-11-04T12:38:42.826Z,45.33
2018-11-04T12:41:11.292Z,46.03
2018-11-04T12:43:39.757Z,43.27
2018-11-04T12:46:08.212Z,47.10
2018-11-04T12:48:36.683Z,44.13
2018-11-04T12:51:05.242Z,40.03
2018-11-04T12:53:33.696Z,42.17
2018-11-04T12:56:02.172Z,42.47
2018-11-04T12:58:30.671Z,48.20
2018-11-04T13:00:59.159Z,47.10
2018-11-04T13:03:27.660Z,44.83
2018-11-04T13:05:56.207Z,50.83
2018-11-04T13:08:24.718Z,44.80
2018-11-04T13:10:53.167Z,49.23
2018-11-04T13:13:21.683Z,46.97
2018-11-04T13:15:50.549Z,49.90
2018-11-04T13:18:18.978Z,54.63
2018-11-04T13:20:51.927Z,45.27
2018-11-04T13:23:23.121Z,45.40
2018-11-04T13:25:53.465Z,45.77
2018-11-04T13:28:30.871Z,43.23
2018-11-04T13:31:03.605Z,49.63
2018-11-04T13:33:41.110Z,51.80
2018-11-04T13:36:10.298Z,49.43
2018-11-04T13:38:43.522Z,43.30
2018-11-04T13:41:12.109Z,47.93
2018-11-04T13:43:40.530Z,45.73
2018-11-04T13:46:09.033Z,47.43
2018-11-04T13:48:37.763Z,46.23
2018-11-04T13:51:06.312Z,41.90
2018-11-04T13:53:34.916Z,45.60
2018-11-04T13:56:03.430Z,41.50
2018-11-04T13:58:31.860Z,43.87
2018-11-04T14:01:00.637Z,43.93
2018-11-04T14:03:29.237Z,44.73
2018-11-04T14:05:57.695Z,56.13
2018-11-04T14:08:26.354Z,52.70
2018-11-04T14:10:54.888Z,56.60
2018-11-04T14:13:23.462Z,45.47
2018-11-04T14:15:51.886Z,44.23
2018-11-04T14:18:20.361Z,51.57
2018-11-04T14:20:49.140Z,42.40
2018-11-04T14:23:17.911Z,52.43
2018-11-04T14:25:46.968Z,48.77
2018-11-04T14:28:20.930Z,44.07
2018-11-04T14:30:49.548Z,44.30
2018-11-04T14:33:18.075Z,45.80
2018-11-04T14:35:46.844Z,46.83
2018-11-04T14:38:15.431Z,43.60
2018-11-04T14:40:44.047Z,40.57
2018-11-04T14:43:12.634Z,43.77
2018-11-04T14:45:41.370Z,47.50
2018-11-04T14:48:20.525Z,46.43
2018-11-04T14:50:49.145Z,46.10
2018-11-04T14:53:17.625Z,54.70
2018-11-04T14:55:46.104Z,46.17
2018-11-04T14:58:14.667Z,45.47
2018-11-04T15:00:43.158Z,41.13
2018-11-04T15:03:11.660Z,42.50
2018-11-04T15:05:40.171Z,43.53
2018-11-04T15:08:08.592Z,38.23
2018-11-04T15:10:38.923Z,46.93
2018-11-04T15:13:09.537Z,46.40
2018-11-04T15:15:38.144Z,39.87
2018-11-04T15:18:06.695Z,40.87
2018-11-04T15:20:35.287Z,44.20
2018-11-04T15:23:03.833Z,44.20
2018-11-04T15:25:32.271Z,40.10
2018-11-04T15:28:00.883Z,47.70
2018-11-04T15:30:29.380Z,43.70
2018-11-04T15:32:57.845Z,42.27
2018-11-04T15:35:26.326Z,42.63
2018-11-04T15:37:54.860Z,43.43
2018-11-04T15:40:23.358Z,44.10
2018-11-04T15:42:51.803Z,42.67
2018-11-04T15:45:20.582Z,40.03
2018-11-04T15:47:49.099Z,42.17
2018-11-04T15:50:18.802Z,41.93
2018-11-04T15:52:47.896Z,40.03
2018-11-04T15:55:16.349Z,45.00
2018-11-04T15:57:44.778Z,39.93
2018-11-04T16:00:14.484Z,44.30
2018-11-04T16:02:42.936Z,41.53
2018-11-04T16:05:11.831Z,44.30
2018-11-04T16:07:40.313Z,42.80
2018-11-04T16:10:09.879Z,38.50
2018-11-04T16:12:38.735Z,37.17
2018-11-04T16:15:09.232Z,43.03
2018-11-04T16:17:37.676Z,40.13
2018-11-04T16:20:07.687Z,42.27
2018-11-04T16:22:36.135Z,37.90
2018-11-04T16:25:04.747Z,41.17
2018-11-04T16:27:33.193Z,42.57
2018-11-04T16:30:01.647Z,43.63
2018-11-04T16:32:30.120Z,38.67
2018-11-04T16:34:58.566Z,42.37
2018-11-04T16:37:27.002Z,43.10
2018-11-04T16:39:55.443Z,43.27
2018-11-04T16:42:23.961Z,45.50
2018-11-04T16:44:52.377Z,47.07
2018-11-04T16:47:20.841Z,47.17
2018-11-04T16:49:49.280Z,44.83
2018-11-04T16:52:17.694Z,52.00
2018-11-04T16:54:46.443Z,47.87
2018-11-04T16:57:14.901Z,43.40
2018-11-04T16:59:43.376Z,41.10
2018-11-04T17:02:11.838Z,43.47
2018-11-04T17:04:40.453Z,40.40
2018-11-04T17:07:08.782Z,50.23
2018-11-04T17:09:37.244Z,42.13
2018-11-04T17:12:06.152Z,38.33
2018-11-04T17:14:34.613Z,38.40
2018-11-04T17:17:03.044Z,36.87
2018-11-04T17:19:31.517Z,40.63
2018-11-04T17:21:59.939Z,39.50
2018-11-04T17:24:28.372Z,45.83
2018-11-04T17:26:56.829Z,33.70
2018-11-04T17:29:25.389Z,31.63
2018-11-04T17:31:54.297Z,31.63
2018-11-04T17:34:23.011Z,40.10
2018-11-04T17:36:51.502Z,33.67
2018-11-04T17:39:19.946Z,33.17
2018-11-04T17:41:48.439Z,34.63
2018-11-04T17:44:17.974Z,40.33
2018-11-04T17:46:46.346Z,38.63
2018-11-04T17:49:14.808Z,47.13
2018-11-04T17:51:43.473Z,36.80
2018-11-04T17:54:12.066Z,38.00
2018-11-04T17:56:40.508Z,36.83
2018-11-04T17:59:08.949Z,41.80
2018-11-04T18:01:37.429Z,41.37
2018-11-04T18:04:06.259Z,49.03
2018-11-04T18:06:34.793Z,52.83
2018-11-04T18:09:03.961Z,45.10
2018-11-04T18:11:32.494Z,41.17
2018-11-04T18:14:01.026Z,40.33
2018-11-04T18:16:29.428Z,39.67
2018-11-04T18:18:57.854Z,34.40
2018-11-04T18:21:26.391Z,37.10
2018-11-04T18:23:54.893Z,38.57
2018-11-04T18:26:23.875Z,39.00
2018-11-04T18:28:52.370Z,35.57
2018-11-04T18:31:21.032Z,34.37
2018-11-04T18:33:49.476Z,36.00
2018-11-04T18:36:18.003Z,35.93
2018-11-04T18:38:46.678Z,31.80
2018-11-04T18:41:15.150Z,33.77
2018-11-04T18:43:43.638Z,32.90
2018-11-04T18:46:12.099Z,35.90
2018-11-04T18:48:40.794Z,35.17
2018-11-04T18:51:09.273Z,34.50
2018-11-04T18:53:37.757Z,36.33
2018-11-04T18:56:06.306Z,34.20
2018-11-04T18:58:34.799Z,33.00
2018-11-04T19:01:03.270Z,32.90
2018-11-04T19:03:31.767Z,33.60
2018-11-04T19:06:00.279Z,36.03
2018-11-04T19:08:28.787Z,35.57
2018-11-04T19:10:57.270Z,37.67
2018-11-04T19:13:25.778Z,34.40
2018-11-04T19:15:54.276Z,36.97
2018-11-04T19:18:22.768Z,30.33
2018-11-04T19:20:51.286Z,33.03
2018-11-04T19:23:19.753Z,30.27
2018-11-04T19:25:48.203Z,32.17
2018-11-04T19:28:16.682Z,30.47
2018-11-04T19:30:45.201Z,24.63
2018-11-04T19:33:13.614Z,30.80
2018-11-04T19:35:42.096Z,30.17
2018-11-04T19:38:10.574Z,29.60
2018-11-04T19:40:39.064Z,27.63
2018-11-04T19:43:07.636Z,26.33
2018-11-04T19:45:36.103Z,25.77
2018-11-04T19:48:04.993Z,28.00
2018-11-04T19:50:33.492Z,23.00
2018-11-04T19:53:02.382Z,27.13
2018-11-04T19:55:30.889Z,33.40
2018-11-04T19:57:59.335Z,27.57
2018-11-04T20:00:27.846Z,24.00
2018-11-04T20:02:56.349Z,19.87
2018-11-04T20:05:31.659Z,20.43
2018-11-04T20:08:00.259Z,31.17
2018-11-04T20:10:29.403Z,26.60
2018-11-04T20:13:03.079Z,25.07
2018-11-04T20:15:31.964Z,27.50
2018-11-04T20:18:00.914Z,27.50
2018-11-04T20:20:29.407Z,25.33
2018-11-04T20:22:57.904Z,30.10
2018-11-04T20:25:31.627Z,29.70
2018-11-04T20:28:00.138Z,29.60
2018-11-04T20:30:28.591Z,25.50
2018-11-04T20:33:02.374Z,20.50
2018-11-04T20:35:30.870Z,30.97
2018-11-04T20:37:59.382Z,24.90
2018-11-04T20:40:33.074Z,20.37
2018-11-04T20:43:01.533Z,26.70
2018-11-04T20:45:30.158Z,19.77
2018-11-04T20:48:03.856Z,23.53
2018-11-04T20:50:37.724Z,21.47
2018-11-04T20:53:06.230Z,20.47
2018-11-04T20:55:40.180Z,24.90
2018-11-04T20:58:09.448Z,21.70
2018-11-04T21:00:37.902Z,24.73
2018-11-04T21:03:06.457Z,23.10
2018-11-04T21:05:34.961Z,19.07
2018-11-04T21:08:03.554Z,22.50
2018-11-04T21:10:32.129Z,22.10
2018-11-04T21:13:00.708Z,22.70
2018-11-04T21:15:29.306Z,22.30
2018-11-04T21:17:57.862Z,20.43
2018-11-04T21:20:26.394Z,25.90
2018-11-04T21:22:55.420Z,25.90
2018-11-04T21:25:24.153Z,24.50
2018-11-04T21:27:52.513Z,19.60
2018-11-04T21:30:21.590Z,18.87
2018-11-04T21:32:50.048Z,27.50
2018-11-04T21:35:18.653Z,25.47
2018-11-04T21:37:47.258Z,22.73
2018-11-04T21:40:16.167Z,24.77
2018-11-04T21:42:44.953Z,21.33
2018-11-04T21:45:14.122Z,20.83
2018-11-04T21:47:43.023Z,27.40
2018-11-04T21:50:12.088Z,24.10
2018-11-04T21:52:40.617Z,30.43
2018-11-04T21:55:11.158Z,29.70
2018-11-04T21:57:40.311Z,24.70
2018-11-04T22:00:10.531Z,25.13
2018-11-04T22:02:39.105Z,23.00
2018-11-04T22:05:09.063Z,24.60
2018-11-04T22:07:37.739Z,28.10
2018-11-04T22:10:08.647Z,22.43
2018-11-04T22:12:37.903Z,22.13
2018-11-04T22:15:06.437Z,25.00
2018-11-04T22:17:35.261Z,35.40
2018-11-04T22:20:04.345Z,22.20
2018-11-04T22:22:32.920Z,22.53
2018-11-04T22:25:04.061Z,25.10
2018-11-04T22:27:34.841Z,25.10
2018-11-04T22:30:03.668Z,22.23
2018-11-04T22:32:32.531Z,22.37
2018-11-04T22:35:01.133Z,24.47
2018-11-04T22:37:30.518Z,19.80
2018-11-04T22:39:59.002Z,20.03
2018-11-04T22:42:27.563Z,23.30
2018-11-04T22:44:56.017Z,21.70
2018-11-04T22:47:24.523Z,19.77
2018-11-04T22:49:53.179Z,26.10
2018-11-04T22:52:21.692Z,26.97
2018-11-04T22:54:50.201Z,25.47
2018-11-04T22:57:18.986Z,19.90
2018-11-04T22:59:47.452Z,22.10
2018-11-04T23:02:15.992Z,20.87
2018-11-04T23:04:49.795Z,23.93
2018-11-04T23:07:18.331Z,24.73
2018-11-04T23:09:46.850Z,20.00
2018-11-04T23:12:21.833Z,18.83
2018-11-04T23:14:52.296Z,19.23
2018-11-04T23:17:21.324Z,17.23
2018-11-04T23:19:49.778Z,16.80
2018-11-04T23:22:18.316Z,17.40
2018-11-04T23:24:46.903Z,19.80
2018-11-04T23:27:15.627Z,18.73
2018-11-04T23:29:44.220Z,17.83
2018-11-04T23:32:12.803Z,25.43
2018-11-04T23:34:41.352Z,18.40
2018-11-04T23:37:11.006Z,30.13
2018-11-04T23:39:39.554Z,21.70
2018-11-04T23:42:08.110Z,23.90
2018-11-04T23:44:36.660Z,17.77
2018-11-04T23:47:05.810Z,18.03
2018-11-04T23:49:34.409Z,23.23
2018-11-04T23:52:02.883Z,16.87
2018-11-04T23:54:31.357Z,20.97
2018-11-04T23:57:00.061Z,18.87
2018-11-04T23:59:28.879Z,17.03
